»·PEaware :: N1127P KAJO-KVCV

N1127P :: KAJO-KVCV

FLIGHT INFORMATION

Flight Status: Arrived
Operator: Privately registered:
United States
More flights under this callsign
Pilot: Marcelo S. (23897)
Aircraft: CIRRUS SR-22
(SR22)
More flights by this aircraft type
Origin: KAJO Corona Mun
United States
Destination: KVCV Socal Logistics
United States
More flights between these airports :: More routes between these airports
Route: PDZ V442 APLES
File this flight plan on PilotEdge
Remarks: I-11 RATING, ODP
Altitude:
(Current/Filed)
9,000ft
Speed:
(Current/Filed)
160kts
Departed: 12-Apr-19 05:28 PM
Arrived: 12-Apr-19 06:20 PM
Distance/Time
Traveled:
43nm/0:52
Distance/Time
To Go:
Arrived

Flight Plot

Page will automatically refresh every two minutes.


Map Options




Map Legend


Flown Route
Filed Route
Departure Airport
Arrival Airport
Navaid (VOR, NDB)
Fix

Horizontal Profiles

Position Reports

Time Latitude Longitude Heading Altitude Ground
Speed
12-Apr-19 17:02 33.896589 -117.598537 179 537ft 0kts
12-Apr-19 17:03 33.896589 -117.598537 179 537ft 0kts
12-Apr-19 17:04 33.896589 -117.598537 179 537ft 0kts
12-Apr-19 17:05 33.896589 -117.598537 179 537ft 0kts
12-Apr-19 17:06 33.896589 -117.598537 179 537ft 0kts
12-Apr-19 17:07 33.896589 -117.598537 179 537ft 0kts
12-Apr-19 17:08 33.896589 -117.598537 179 537ft 0kts
12-Apr-19 17:09 33.896992 -117.598173 5 537ft 0kts
12-Apr-19 17:10 33.896992 -117.598173 5 537ft 0kts
12-Apr-19 17:11 33.896992 -117.598173 5 537ft 0kts
12-Apr-19 17:12 33.896992 -117.598173 5 537ft 0kts
12-Apr-19 17:13 33.896992 -117.598173 5 537ft 0kts
12-Apr-19 17:14 33.896992 -117.598173 5 537ft 0kts
12-Apr-19 17:15 33.896992 -117.598173 5 537ft 0kts
12-Apr-19 17:16 33.896992 -117.598173 5 537ft 0kts
12-Apr-19 17:17 33.896992 -117.598173 5 537ft 0kts
12-Apr-19 17:18 33.896992 -117.598173 5 537ft 0kts
12-Apr-19 17:19 33.896992 -117.598173 5 537ft 0kts
12-Apr-19 17:20 33.896992 -117.598173 5 537ft 0kts
12-Apr-19 17:21 33.896992 -117.598173 5 537ft 0kts
12-Apr-19 17:22 33.896992 -117.598173 5 537ft 0kts
12-Apr-19 17:23 33.897268 -117.597717 32 537ft 0kts
12-Apr-19 17:24 33.897268 -117.597717 32 537ft 0kts
12-Apr-19 17:25 33.897268 -117.597717 32 537ft 0kts
12-Apr-19 17:26 33.897694 -117.598159 275 537ft 0kts
12-Apr-19 17:27 33.898644 -117.621931 271 1103ft 94kts
12-Apr-19 17:28 33.915510 -117.631934 69 2001ft 140kts
12-Apr-19 17:29 33.916561 -117.582534 88 3014ft 154kts
12-Apr-19 17:30 33.919502 -117.529896 66 3921ft 160kts
12-Apr-19 17:31 33.944305 -117.486267 84 4816ft 166kts
12-Apr-19 17:32 33.913832 -117.481495 267 5283ft 156kts
12-Apr-19 17:33 33.918222 -117.530361 277 6291ft 145kts
12-Apr-19 17:34 33.950463 -117.537990 24 7327ft 151kts
12-Apr-19 17:35 33.987660 -117.514333 24 8340ft 151kts
12-Apr-19 17:36 33.971602 -117.481213 201 9014ft 187kts
12-Apr-19 17:37 33.948512 -117.528006 289 9026ft 180kts
12-Apr-19 17:38 33.945572 -117.585073 325 9004ft 174kts
12-Apr-19 17:39 33.979585 -117.554432 64 9009ft 190kts
12-Apr-19 17:40 33.999323 -117.495998 49 9012ft 185kts
12-Apr-19 17:41 34.037484 -117.456133 33 9009ft 182kts
12-Apr-19 17:42 34.081623 -117.428554 15 9013ft 179kts
12-Apr-19 17:43 34.127749 -117.405215 22 9006ft 181kts
12-Apr-19 17:44 34.173004 -117.377933 23 9008ft 182kts
12-Apr-19 17:45 34.218096 -117.350643 23 9010ft 181kts
12-Apr-19 17:46 34.263953 -117.322844 23 9000ft 187kts
12-Apr-19 17:47 34.310313 -117.294653 23 9012ft 185kts
12-Apr-19 17:48 34.356095 -117.266800 23 9011ft 183kts
12-Apr-19 17:49 34.401544 -117.239133 24 9013ft 182kts
12-Apr-19 17:50 34.446979 -117.211426 24 9015ft 182kts
12-Apr-19 17:51 34.492275 -117.183784 24 9016ft 182kts
12-Apr-19 17:52 34.537391 -117.156208 25 9019ft 181kts
12-Apr-19 17:53 34.588105 -117.143791 1 8390ft 193kts
12-Apr-19 17:54 34.641464 -117.150365 346 7611ft 193kts
12-Apr-19 17:55 34.691347 -117.173444 331 6831ft 192kts
12-Apr-19 17:56 34.733165 -117.209910 319 6598ft 179kts
12-Apr-19 17:57 34.765011 -117.255848 305 6603ft 178kts
12-Apr-19 17:58 34.787163 -117.311086 291 6237ft 194kts
12-Apr-19 17:59 34.773001 -117.370381 210 5408ft 202kts
12-Apr-19 18:00 34.717098 -117.379308 186 4495ft 195kts
12-Apr-19 18:01 34.668716 -117.383486 186 3854ft 172kts
12-Apr-19 18:02 34.622597 -117.387504 184 3306ft 154kts
12-Apr-19 18:03 34.577142 -117.389803 208 3852ft 158kts
12-Apr-19 18:04 34.578401 -117.432853 290 4883ft 139kts
12-Apr-19 18:05 34.590038 -117.478082 290 5866ft 143kts
12-Apr-19 18:06 34.603572 -117.529965 289 6001ft 172kts
12-Apr-19 18:07 34.617299 -117.582905 289 5996ft 158kts
12-Apr-19 18:08 34.612766 -117.632792 212 5996ft 168kts
12-Apr-19 18:09 34.562528 -117.650279 196 4792ft 196kts
12-Apr-19 18:10 34.513593 -117.648046 127 4278ft 174kts
12-Apr-19 18:11 34.537008 -117.625100 322 4333ft 166kts
12-Apr-19 18:12 34.577579 -117.606980 50 4307ft 184kts
12-Apr-19 18:13 34.598061 -117.549460 64 4300ft 185kts
12-Apr-19 18:14 34.617755 -117.490083 70 3980ft 193kts
12-Apr-19 18:15 34.622353 -117.426400 102 3778ft 193kts
12-Apr-19 18:16 34.581799 -117.408399 182 3566ft 141kts
12-Apr-19 18:17 34.549779 -117.400340 96 3426ft 122kts
12-Apr-19 18:18 34.574382 -117.386321 359 3058ft 98kts
12-Apr-19 18:19 34.591646 -117.386550 359 2889ft 33kts
12-Apr-19 18:20 34.593530 -117.383069 129 2889ft 32kts
12-Apr-19 18:21 34.587922 -117.376774 142 2889ft 0kts
12-Apr-19 18:22 34.587922 -117.376774 142 2889ft 0kts
12-Apr-19 18:23 34.587922 -117.376774 142 2889ft 0kts
12-Apr-19 18:24 34.587922 -117.376774 142 2889ft 0kts
12-Apr-19 18:25 34.587922 -117.376774 142 2889ft 0kts
12-Apr-19 18:26 34.587922 -117.376774 142 2889ft 0kts
12-Apr-19 18:27 34.587922 -117.376774 142 2889ft 0kts
12-Apr-19 18:28 34.587922 -117.376774 142 2889ft 0kts
12-Apr-19 18:29 34.587922 -117.376774 142 2889ft 0kts
12-Apr-19 18:30 34.587922 -117.376774 142 2889ft 0kts
12-Apr-19 18:31 34.587922 -117.376774 142 2889ft 0kts
12-Apr-19 18:32 34.587922 -117.376774 142 2889ft 0kts
12-Apr-19 18:33 34.587922 -117.376774 142 2889ft 0kts
12-Apr-19 18:35 34.587922 -117.376774 142 2889ft 0kts

Navigation Log

Ident Type
Flight plan parsing failed, navigation log unavailable